Bingham, Utah
Current Conditions -  °F | °C
As of 7:53 PM on Wednesday 22 Oct 2014 (Local Time) from KSLC Reporting Station
Broken Clouds Broken Clouds  
Wind Chill: 52°   Ceiling: 20000
Heat Index: 52°   Visibility: 10mi
Dew Point: 35°   Wind: 0mph
Humidity: 53%   Direction: NA
Pressure: 30.17"   Gusts: NA
Location:  40.5425°N, 112.133°W
Report Text: KSLC 230153Z 00000KT 10SM FEW140 BKN200 11/02 A3017 RMK AO2 SLP205 T01110017
Loading
Personal Weather Stations






























Interactive Weather Map
Tropical Storm Tracking
New forecast layout! Learn more

10-Day Weather Forecast

Advertisements
Track Severe Weather on mobile